1923 NOT_NAMED (1923232N16145)


IBTrACS version v04r00. Visit IBTrACS website for data access.
Please direct all questions to the IBTrACS Q and A forum

Storm track - Intensity - Wind Radii - Intensity Data - Source Data - All data

Summary Information

Storm ID 1923232N16145
Start Aug 19 22Z
End Aug 23 22Z
ATCF IDs
Track status Best track data.

Storm track plot

Map of storm track

Intensity plots

No Intensity information for this storm


Radial wind information

No radial wind information for this storm


Position and Intensity Table

BASIN ISO_TIME_________ NATURE LAT LON
degrees north degrees east
WP 1923-08-19 22:00:00 NR 16.00 144.70
WP 1923-08-20 00:00:00 NR 16.15 144.29
WP 03:00:00 NR 16.37 143.67
WP 06:00:00 NR 16.59 143.07
WP 09:00:00 NR 16.82 142.49
WP 10:00:00 NR 16.90 142.30
WP 12:00:00 NR 17.06 141.94
WP 15:00:00 NR 17.32 141.40
WP 18:00:00 NR 17.61 140.87
WP 21:00:00 NR 17.97 140.30
WP 22:00:00 NR 18.10 140.10
WP 1923-08-21 00:00:00 NR 18.39 139.67
WP 03:00:00 NR 18.89 138.97
WP 06:00:00 NR 19.44 138.26
WP 09:00:00 NR 20.01 137.54
WP 10:00:00 NR 20.20 137.30
WP 12:00:00 NR 20.56 136.82
WP 15:00:00 NR 21.11 136.11
WP 18:00:00 NR 21.68 135.42
WP 21:00:00 NR 22.29 134.79
WP 22:00:00 NR 22.50 134.60
WP 1923-08-22 00:00:00 NR 22.95 134.27
WP 03:00:00 NR 23.65 133.83
WP 06:00:00 NR 24.37 133.41
WP 09:00:00 NR 25.07 132.96
WP 10:00:00 NR 25.30 132.80
WP 12:00:00 NR 25.76 132.39
WP 15:00:00 NR 26.43 131.73
WP 18:00:00 NR 27.04 131.05
WP 21:00:00 NR 27.56 130.40
WP 22:00:00 NR 27.70 130.20
WP 1923-08-23 00:00:00 NR 27.94 129.86
WP 03:00:00 NR 28.21 129.40
WP 06:00:00 NR 28.40 128.98
WP 09:00:00 NR 28.55 128.55
WP 10:00:00 NR 28.60 128.40
WP 12:00:00 NR 28.70 128.09
WP 15:00:00 NR 28.84 127.58
WP 18:00:00 NR 29.00 127.04
WP 21:00:00 NR 29.15 126.49
WP 22:00:00 NR 29.20 126.30

Source Information

Agency Information
USA
TOKYO
CMA
HKO
NEWDELHI
REUNION
BOM
NADI
WELLINGTON
DS824
TD9636 cons_worldwide_trop_cyclone_18710101-19891231-003:Line=7003
TD9635
NEUMANN
MLC

All available IBTrACS Data

SEASON BASIN SUBBASIN ISO_TIME_________ NATURE LAT LON DIST2LAND LANDFALL IFLAG USA SSHS TD9636 LAT TD9636 LON TD9636 STAGE STORM SPEED STORM DIR
Year degrees north degrees east km km 1 degrees north degrees east kts degrees
1923 WP MM 1923-08-19 22:00:00 NR 16.00 144.70 2038 2038 __________O___ -1 16.00 144.70 4 13 290
1923 WP MM 1923-08-20 00:00:00 NR 16.15 144.29 2054 2014 __________P___ -1 16.15 144.29 4 13 290
1923 WP MM 03:00:00 NR 16.37 143.67 2016 1958 __________P___ -1 16.37 143.67 4 13 291
1923 WP MM 06:00:00 NR 16.59 143.07 1958 1901 __________P___ -1 16.59 143.07 4 12 292
1923 WP MM 09:00:00 NR 16.82 142.49 1901 1882 __________P___ -1 16.82 142.49 4 12 293
1923 WP MM 10:00:00 NR 16.90 142.30 1882 1847 __________O___ -1 16.90 142.30 4 12 294
1923 WP MM 12:00:00 NR 17.06 141.94 1847 1802 __________P___ -1 17.06 141.94 4 11 296
1923 WP MM 15:00:00 NR 17.32 141.40 1802 1761 __________P___ -1 17.32 141.40 4 12 298
1923 WP MM 18:00:00 NR 17.61 140.87 1761 1712 __________P___ -1 17.61 140.87 4 12 302
1923 WP MM 21:00:00 NR 17.97 140.30 1715 1700 __________P___ -1 17.97 140.30 4 13 304
1923 WP MM 22:00:00 NR 18.10 140.10 1700 1668 __________O___ -1 18.10 140.10 4 15 305
1923 WP MM 1923-08-21 00:00:00 NR 18.39 139.67 1673 1588 __________P___ -1 18.39 139.67 4 16 306
1923 WP MM 03:00:00 NR 18.89 138.97 1588 1503 __________P___ -1 18.89 138.97 4 17 308
1923 WP MM 06:00:00 NR 19.44 138.26 1503 1404 __________P___ -1 19.44 138.26 4 18 309
1923 WP MM 09:00:00 NR 20.01 137.54 1404 1375 __________P___ -1 20.01 137.54 4 18 310
1923 WP MM 10:00:00 NR 20.20 137.30 1375 1311 __________O___ -1 20.20 137.30 4 17 309
1923 WP MM 12:00:00 NR 20.56 136.82 1311 1229 __________P___ -1 20.56 136.82 4 17 309
1923 WP MM 15:00:00 NR 21.11 136.11 1229 1138 __________P___ -1 21.11 136.11 4 17 311
1923 WP MM 18:00:00 NR 21.68 135.42 1138 1053 __________P___ -1 21.68 135.42 4 17 314
1923 WP MM 21:00:00 NR 22.29 134.79 1053 1024 __________P___ -1 22.29 134.79 4 17 317
1923 WP MM 22:00:00 NR 22.50 134.60 1024 972 __________O___ -1 22.50 134.60 4 16 324
1923 WP MM 1923-08-22 00:00:00 NR 22.95 134.27 972 870 __________P___ -1 22.95 134.27 4 16 328
1923 WP MM 03:00:00 NR 23.65 133.83 870 783 __________P___ -1 23.65 133.83 4 16 331
1923 WP MM 06:00:00 NR 24.37 133.41 783 696 __________P___ -1 24.37 133.41 4 16 331
1923 WP MM 09:00:00 NR 25.07 132.96 696 668 __________P___ -1 25.07 132.96 4 16 329
1923 WP MM 10:00:00 NR 25.30 132.80 668 603 __________O___ -1 25.30 132.80 4 17 323
1923 WP MM 12:00:00 NR 25.76 132.39 603 522 __________P___ -1 25.76 132.39 4 18 320
1923 WP MM 15:00:00 NR 26.43 131.73 522 448 __________P___ -1 26.43 131.73 4 18 317
1923 WP MM 18:00:00 NR 27.04 131.05 448 380 __________P___ -1 27.04 131.05 4 16 313
1923 WP MM 21:00:00 NR 27.56 130.40 380 370 __________P___ -1 27.56 130.40 4 15 311
1923 WP MM 22:00:00 NR 27.70 130.20 371 352 __________O___ -1 27.70 130.20 4 12 309
1923 WP MM 1923-08-23 00:00:00 NR 27.94 129.86 354 333 __________P___ -1 27.94 129.86 4 10 306
1923 WP MM 03:00:00 NR 28.21 129.40 336 328 __________P___ -1 28.21 129.40 4 9 301
1923 WP MM 06:00:00 NR 28.40 128.98 333 330 __________P___ -1 28.40 128.98 4 8 294
1923 WP MM 09:00:00 NR 28.55 128.55 333 333 __________P___ -1 28.55 128.55 4 8 291
1923 WP MM 10:00:00 NR 28.60 128.40 337 337 __________O___ -1 28.60 128.40 4 9 289
1923 WP MM 12:00:00 NR 28.70 128.09 344 344 __________P___ -1 28.70 128.09 4 9 289
1923 WP MM 15:00:00 NR 28.84 127.58 366 358 __________P___ -1 28.84 127.58 4 10 288
1923 WP MM 18:00:00 NR 29.00 127.04 393 393 __________P___ -1 29.00 127.04 4 10 288
1923 WP MM 21:00:00 NR 29.15 126.49 425 416 __________P___ -1 29.15 126.49 4 10 287
1923 WP MM 22:00:00 NR 29.20 126.30 416 __________O___ -1 29.20 126.30 4 10 287